Time,TemperatureF,DewpointF,PressureIn,WindDirection,WindDirectionDegrees,WindSpeedMPH,WindSpeedGustMPH,Humidity,HourlyPrecipIn,Conditions,Clouds,dailyrainin,SolarRadiationWatts/m^2,SoftwareType,DateUTC
2013-01-30 00:00:00,34.4,24.2,30.21,NNE,29,2.0,2.0,66,0.00,,,0.00,0,Wunderground v.1.15,2013-01-30 07:00:00,
2013-01-30 00:10:00,34.2,24.4,30.21,NNE,29,1.0,1.0,67,0.00,,,0.00,0,Wunderground v.1.15,2013-01-30 07:10:00,
2013-01-30 00:20:00,33.9,24.4,30.22,NNE,29,0.0,0.0,68,0.00,,,0.00,0,Wunderground v.1.15,2013-01-30 07:20:00,
2013-01-30 00:30:00,33.7,24.6,30.22,NNE,29,0.0,0.0,69,0.00,,,0.00,0,Wunderground v.1.15,2013-01-30 07:30:00,
2013-01-30 00:40:00,33.8,24.7,30.22,NNE,28,1.0,1.0,69,0.00,,,0.00,0,Wunderground v.1.15,2013-01-30 07:40:00,
2013-01-30 00:50:00,33.9,24.4,30.22,NNE,28,2.0,2.0,68,0.00,,,0.00,0,Wunderground v.1.15,2013-01-30 07:50:00,
2013-01-30 01:00:00,34.4,24.9,30.22,NW,325,4.0,4.0,68,0.00,,,0.00,0,Wunderground v.1.15,2013-01-30 08:00:00,
2013-01-30 01:10:00,35.7,25.1,30.22,NNW,327,6.0,6.0,65,0.00,,,0.00,0,Wunderground v.1.15,2013-01-30 08:10:00,
2013-01-30 01:20:00,35.9,24.9,30.22,North,5,3.0,3.0,64,0.00,,,0.00,0,Wunderground v.1.15,2013-01-30 08:20:00,
2013-01-30 01:30:00,35.3,24.3,30.23,NE,43,2.0,2.0,64,0.00,,,0.00,0,Wunderground v.1.15,2013-01-30 08:30:00,
2013-01-30 01:40:00,35.3,24.0,30.23,ENE,68,4.0,4.0,63,0.00,,,0.00,0,Wunderground v.1.15,2013-01-30 08:40:00,
2013-01-30 01:50:00,36.1,24.3,30.24,NNE,19,4.0,4.0,62,0.00,,,0.00,0,Wunderground v.1.15,2013-01-30 08:50:00,
2013-01-30 02:00:00,36.5,24.3,30.23,NNW,341,4.0,4.0,61,0.00,,,0.00,0,Wunderground v.1.15,2013-01-30 09:00:00,
2013-01-30 02:10:00,36.5,24.3,30.23,North,349,5.0,5.0,61,0.00,,,0.00,0,Wunderground v.1.15,2013-01-30 09:10:00,
2013-01-30 02:19:00,36.6,24.4,30.24,NNW,348,3.0,3.0,61,0.00,,,0.00,0,Wunderground v.1.15,2013-01-30 09:19:00,
2013-01-30 02:30:00,36.5,23.9,30.25,North,349,1.0,2.0,60,0.00,,,0.00,0,Wunderground v.1.15,2013-01-30 09:30:00,
2013-01-30 02:40:00,36.2,23.6,30.25,North,349,1.0,2.0,60,0.00,,,0.00,0,Wunderground v.1.15,2013-01-30 09:40:00,
2013-01-30 02:50:00,35.9,23.7,30.25,NNW,348,2.0,2.0,61,0.00,,,0.00,0,Wunderground v.1.15,2013-01-30 09:50:00,
2013-01-30 03:00:00,35.4,23.7,30.26,North,349,1.0,1.0,62,0.00,,,0.00,0,Wunderground v.1.15,2013-01-30 10:00:00,
2013-01-30 03:10:00,34.6,23.3,30.26,North,350,0.0,0.0,63,0.00,,,0.00,0,Wunderground v.1.15,2013-01-30 10:10:00,
2013-01-30 03:20:00,34.3,22.6,30.26,North,350,0.0,1.0,62,0.00,,,0.00,0,Wunderground v.1.15,2013-01-30 10:20:00,
2013-01-30 03:30:00,34.3,22.2,30.26,North,350,1.0,2.0,61,0.00,,,0.00,0,Wunderground v.1.15,2013-01-30 10:30:00,
2013-01-30 03:40:00,34.4,22.3,30.26,NNW,328,2.0,2.0,61,0.00,,,0.00,0,Wunderground v.1.15,2013-01-30 10:40:00,
2013-01-30 03:50:00,33.8,22.1,30.26,NNW,328,0.0,0.0,62,0.00,,,0.00,0,Wunderground v.1.15,2013-01-30 10:50:00,
2013-01-30 04:00:00,33.3,22.4,30.26,NNW,328,0.0,0.0,64,0.00,,,0.00,0,Wunderground v.1.15,2013-01-30 11:00:00,
2013-01-30 04:10:00,33.0,22.5,30.26,NNW,327,0.0,0.0,65,0.00,,,0.00,0,Wunderground v.1.15,2013-01-30 11:10:00,
2013-01-30 04:20:00,32.0,22.3,30.26,NNW,330,0.0,0.0,67,0.00,,,0.00,0,Wunderground v.1.15,2013-01-30 11:20:00,
2013-01-30 04:30:00,31.9,22.2,30.27,NNW,327,1.0,1.0,67,0.00,,,0.00,0,Wunderground v.1.15,2013-01-30 11:30:00,
2013-01-30 04:39:00,31.8,22.4,30.27,NNW,327,0.0,0.0,68,0.00,,,0.00,0,Wunderground v.1.15,2013-01-30 11:39:00,
2013-01-30 04:50:00,31.4,22.1,30.27,NNW,327,0.0,0.0,68,0.00,,,0.00,0,Wunderground v.1.15,2013-01-30 11:50:00,
2013-01-30 05:00:00,30.9,21.9,30.28,NNW,327,0.0,0.0,69,0.00,,,0.00,0,Wunderground v.1.15,2013-01-30 12:00:00,
2013-01-30 05:10:00,30.3,21.3,30.28,NNW,327,0.0,0.0,69,0.00,,,0.00,0,Wunderground v.1.15,2013-01-30 12:10:00,
2013-01-30 05:20:00,29.8,21.2,30.29,NNW,327,0.0,0.0,70,0.00,,,0.00,0,Wunderground v.1.15,2013-01-30 12:20:00,
2013-01-30 05:30:00,29.4,21.2,30.29,NNW,327,0.0,0.0,71,0.00,,,0.00,0,Wunderground v.1.15,2013-01-30 12:30:00,
2013-01-30 05:40:00,29.2,21.3,30.29,NNW,327,0.0,0.0,72,0.00,,,0.00,0,Wunderground v.1.15,2013-01-30 12:40:00,
2013-01-30 05:49:00,28.8,21.2,30.29,NNW,327,0.0,0.0,73,0.00,,,0.00,0,Wunderground v.1.15,2013-01-30 12:49:00,
2013-01-30 06:00:00,28.7,21.5,30.30,NNW,327,0.0,0.0,74,0.00,,,0.00,0,Wunderground v.1.15,2013-01-30 13:00:00,
2013-01-30 06:10:00,28.4,21.2,30.30,NNW,327,0.0,0.0,74,0.00,,,0.00,0,Wunderground v.1.15,2013-01-30 13:10:00,
2013-01-30 06:20:00,28.3,21.1,30.30,NNW,327,0.0,0.0,74,0.00,,,0.00,0,Wunderground v.1.15,2013-01-30 13:20:00,
2013-01-30 06:29:00,28.0,20.8,30.30,NNW,327,0.0,0.0,74,0.00,,,0.00,0,Wunderground v.1.15,2013-01-30 13:29:00,
2013-01-30 06:30:00,27.8,20.6,30.30,North,-999,0.0,0.0,74,0.00,,,-99.99,0,WeatherLink 5.9.3,2013-01-30 13:30:00,
2013-01-30 06:40:00,27.7,20.8,30.30,NNW,330,0.0,3.0,75,0.00,,,0.00,0,Wunderground v.1.15,2013-01-30 13:40:00,
2013-01-30 06:50:00,27.6,20.7,30.31,NNW,335,1.0,1.0,75,0.00,,,0.00,0,Wunderground v.1.15,2013-01-30 13:50:00,
2013-01-30 07:00:00,27.4,20.2,30.32,NNW,335,0.0,0.0,74,0.00,,,0.00,0,Wunderground v.1.15,2013-01-30 14:00:00,
2013-01-30 07:10:00,27.0,20.1,30.32,NNW,335,0.0,0.0,75,0.00,,,0.00,0,Wunderground v.1.15,2013-01-30 14:10:00,
2013-01-30 07:20:00,26.7,19.8,30.32,NNW,335,0.0,0.0,75,0.00,,,0.00,0,Wunderground v.1.15,2013-01-30 14:20:00,
2013-01-30 07:30:00,26.6,20.1,30.33,NNW,335,0.0,0.0,76,0.00,,,0.00,5,Wunderground v.1.15,2013-01-30 14:30:00,
2013-01-30 07:40:00,26.6,20.4,30.33,NNW,341,2.0,2.0,77,0.00,,,0.00,11,Wunderground v.1.15,2013-01-30 14:40:00,
2013-01-30 07:50:00,26.8,20.6,30.33,NNW,341,0.0,0.0,77,0.00,,,0.00,19,Wunderground v.1.15,2013-01-30 14:50:00,
2013-01-30 08:00:00,27.6,21.6,30.33,NNW,342,0.0,0.0,78,0.00,,,0.00,44,Wunderground v.1.15,2013-01-30 15:00:00,
2013-01-30 08:10:00,28.6,22.6,30.34,NNW,341,0.0,0.0,78,0.00,,,0.00,74,Wunderground v.1.15,2013-01-30 15:10:00,
2013-01-30 08:20:00,29.7,23.4,30.34,NNW,342,0.0,0.0,77,0.00,,,0.00,107,Wunderground v.1.15,2013-01-30 15:20:00,
2013-01-30 08:30:00,29.9,23.6,30.34,ENE,74,2.0,3.0,77,0.00,,,0.00,137,Wunderground v.1.15,2013-01-30 15:30:00,
2013-01-30 08:40:00,31.2,24.5,30.35,ENE,74,1.0,1.0,76,0.00,,,0.00,171,Wunderground v.1.15,2013-01-30 15:40:00,
2013-01-30 08:50:00,33.2,25.5,30.35,ENE,74,0.0,0.0,73,0.00,,,0.00,211,Wunderground v.1.15,2013-01-30 15:50:00,
2013-01-30 09:00:00,35.8,24.8,30.35,ENE,71,0.0,0.0,64,0.00,,,0.00,255,Wunderground v.1.15,2013-01-30 16:00:00,
2013-01-30 09:10:00,36.2,24.0,30.35,ENE,71,1.0,1.0,61,0.00,,,0.00,295,Wunderground v.1.15,2013-01-30 16:10:00,
2013-01-30 09:20:00,37.7,23.0,30.35,ENE,71,0.0,0.0,55,0.00,,,0.00,323,Wunderground v.1.15,2013-01-30 16:20:00,
2013-01-30 09:30:00,38.6,22.9,30.36,ENE,71,0.0,0.0,53,0.00,,,0.00,352,Wunderground v.1.15,2013-01-30 16:30:00,
2013-01-30 09:40:00,40.9,24.1,30.36,ENE,71,0.0,0.0,51,0.00,,,0.00,380,Wunderground v.1.15,2013-01-30 16:40:00,
2013-01-30 09:50:00,40.6,23.4,30.35,ENE,75,1.0,1.0,50,0.00,,,0.00,403,Wunderground v.1.15,2013-01-30 16:50:00,
2013-01-30 10:00:00,41.4,23.2,30.36,ENE,75,0.0,0.0,48,0.00,,,0.00,429,Wunderground v.1.15,2013-01-30 17:00:00,
2013-01-30 10:10:00,42.3,23.5,30.36,ENE,75,0.0,2.0,47,0.00,,,0.00,452,Wunderground v.1.15,2013-01-30 17:10:00,
2013-01-30 10:20:00,44.2,23.6,30.36,ENE,75,0.0,2.0,44,0.00,,,0.00,473,Wunderground v.1.15,2013-01-30 17:20:00,
2013-01-30 10:30:00,44.6,24.5,30.36,NE,53,1.0,1.0,45,0.00,,,0.00,494,Wunderground v.1.15,2013-01-30 17:30:00,
2013-01-30 10:40:00,45.2,23.4,30.36,NNW,342,1.0,3.0,42,0.00,,,0.00,513,Wunderground v.1.15,2013-01-30 17:40:00,
2013-01-30 10:50:00,45.5,24.3,30.36,NNW,341,0.0,0.0,43,0.00,,,0.00,531,Wunderground v.1.15,2013-01-30 17:50:00,
2013-01-30 11:00:00,46.0,24.7,30.35,ENE,61,1.0,1.0,43,0.00,,,0.00,548,Wunderground v.1.15,2013-01-30 18:00:00,
2013-01-30 11:10:00,45.9,24.6,30.34,ENE,69,1.0,1.0,43,0.00,,,0.00,564,Wunderground v.1.15,2013-01-30 18:10:00,
2013-01-30 11:20:00,46.0,25.8,30.34,ESE,114,2.0,4.0,45,0.00,,,0.00,582,Wunderground v.1.15,2013-01-30 18:20:00,
2013-01-30 11:30:00,46.9,26.1,30.33,ESE,111,3.0,3.0,44,0.00,,,0.00,592,Wunderground v.1.15,2013-01-30 18:30:00,
2013-01-30 11:40:00,48.2,26.7,30.33,East,80,2.0,2.0,43,0.00,,,0.00,603,Wunderground v.1.15,2013-01-30 18:40:00,
2013-01-30 11:50:00,48.1,25.5,30.32,East,91,3.0,4.0,41,0.00,,,0.00,613,Wunderground v.1.15,2013-01-30 18:50:00,
2013-01-30 12:00:00,47.7,25.1,30.32,ESE,119,3.0,5.0,41,0.00,,,0.00,622,Wunderground v.1.15,2013-01-30 19:00:00,
2013-01-30 12:10:00,47.8,24.0,30.31,East,95,3.0,3.0,39,0.00,,,0.00,629,Wunderground v.1.15,2013-01-30 19:10:00,
2013-01-30 12:20:00,47.5,24.3,30.30,East,85,2.0,2.0,40,0.00,,,0.00,635,Wunderground v.1.15,2013-01-30 19:20:00,
2013-01-30 12:29:00,48.2,23.1,30.29,East,94,2.0,3.0,37,0.00,,,0.00,636,Wunderground v.1.15,2013-01-30 19:29:00,
2013-01-30 12:30:00,48.4,23.9,30.29,East,90,2.0,9.0,38,0.00,,,-99.99,634,WeatherLink 5.9.3,2013-01-30 19:30:00,
2013-01-30 12:40:00,49.0,23.8,30.29,ESE,121,2.0,3.0,37,0.00,,,0.00,636,Wunderground v.1.15,2013-01-30 19:40:00,
2013-01-30 12:50:00,49.9,24.0,30.29,SE,144,2.0,3.0,36,0.00,,,0.00,638,Wunderground v.1.15,2013-01-30 19:50:00,
2013-01-30 13:00:00,48.7,24.8,30.29,SE,136,3.0,3.0,39,0.00,,,0.00,636,Wunderground v.1.15,2013-01-30 20:00:00,
2013-01-30 13:10:00,48.5,24.6,30.28,East,95,3.0,3.0,39,0.00,,,0.00,631,Wunderground v.1.15,2013-01-30 20:10:00,
2013-01-30 13:20:00,51.1,26.3,30.27,NE,56,2.0,3.0,38,0.00,,,0.00,626,Wunderground v.1.15,2013-01-30 20:20:00,
2013-01-30 13:30:00,52.1,25.9,30.27,ENE,69,2.0,2.0,36,0.00,,,0.00,617,Wunderground v.1.15,2013-01-30 20:30:00,
2013-01-30 13:40:00,51.6,25.5,30.26,ESE,111,2.0,3.0,36,0.00,,,0.00,608,Wunderground v.1.15,2013-01-30 20:40:00,
2013-01-30 13:50:00,52.7,25.8,30.26,NNE,32,2.0,5.0,35,0.00,,,0.00,598,Wunderground v.1.15,2013-01-30 20:50:00,
2013-01-30 13:59:00,54.6,26.0,30.25,NNW,341,2.0,2.0,33,0.00,,,0.00,584,Wunderground v.1.15,2013-01-30 20:59:00,
2013-01-30 14:00:00,55.1,25.7,30.25,NNE,22,2.0,6.0,32,0.00,,,-99.99,597,WeatherLink 5.9.3,2013-01-30 21:00:00,
2013-01-30 14:10:00,55.7,26.3,30.25,NNW,341,2.0,3.0,32,0.00,,,0.00,568,Wunderground v.1.15,2013-01-30 21:10:00,
2013-01-30 14:21:00,54.7,26.1,30.24,SW,223,3.0,4.0,33,0.00,,,0.00,555,Wunderground v.1.15,2013-01-30 21:21:00,
2013-01-30 14:30:00,53.4,26.4,30.24,SSW,205,3.0,4.0,35,0.00,,,0.00,538,Wunderground v.1.15,2013-01-30 21:30:00,
2013-01-30 14:40:00,55.1,25.7,30.24,SW,214,2.0,2.0,32,0.00,,,0.00,520,Wunderground v.1.15,2013-01-30 21:40:00,
2013-01-30 14:50:00,54.2,26.4,30.24,SSW,207,1.0,1.0,34,0.00,,,0.00,501,Wunderground v.1.15,2013-01-30 21:50:00,
2013-01-30 15:00:00,52.9,26.0,30.23,SSW,205,1.0,1.0,35,0.00,,,0.00,480,Wunderground v.1.15,2013-01-30 22:00:00,
2013-01-30 15:10:00,54.4,25.9,30.23,SSW,205,1.0,1.0,33,0.00,,,0.00,459,Wunderground v.1.15,2013-01-30 22:10:00,
2013-01-30 15:20:00,54.8,26.2,30.22,SSW,206,2.0,2.0,33,0.00,,,0.00,432,Wunderground v.1.15,2013-01-30 22:20:00,
2013-01-30 15:29:00,55.4,27.5,30.22,SSW,206,0.0,1.0,34,0.00,,,0.00,410,Wunderground v.1.15,2013-01-30 22:29:00,
2013-01-30 15:30:00,55.3,27.4,30.22,SSW,202,1.0,5.0,34,0.00,,,-99.99,433,WeatherLink 5.9.3,2013-01-30 22:30:00,
2013-01-30 15:40:00,55.5,27.6,30.21,NW,317,1.0,2.0,34,0.00,,,0.00,383,Wunderground v.1.15,2013-01-30 22:40:00,
2013-01-30 15:50:00,53.6,25.9,30.22,SE,128,2.0,2.0,34,0.00,,,0.00,355,Wunderground v.1.15,2013-01-30 22:50:00,
2013-01-30 16:00:00,52.1,25.9,30.22,SE,124,4.0,4.0,36,0.00,,,0.00,329,Wunderground v.1.15,2013-01-30 23:00:00,
2013-01-30 16:10:00,52.0,26.5,30.22,ESE,123,1.0,1.0,37,0.00,,,0.00,290,Wunderground v.1.15,2013-01-30 23:10:00,
2013-01-30 16:20:00,52.6,26.4,30.22,SE,128,1.0,5.0,36,0.00,,,0.00,251,Wunderground v.1.15,2013-01-30 23:20:00,
2013-01-30 16:30:00,52.1,26.6,30.21,ESE,123,4.0,4.0,37,0.00,,,0.00,213,Wunderground v.1.15,2013-01-30 23:30:00,
2013-01-30 16:39:00,52.3,26.8,30.21,ESE,122,2.0,2.0,37,0.00,,,0.00,171,Wunderground v.1.15,2013-01-30 23:39:00,
2013-01-30 16:50:00,52.7,26.5,30.21,ESE,122,0.0,3.0,36,0.00,,,0.00,130,Wunderground v.1.15,2013-01-30 23:50:00,
2013-01-30 17:00:00,52.3,26.8,30.21,ESE,122,3.0,3.0,37,0.00,,,0.00,93,Wunderground v.1.15,2013-01-31 00:00:00,
2013-01-30 17:10:00,52.0,27.1,30.21,ESE,122,2.0,2.0,38,0.00,,,0.00,60,Wunderground v.1.15,2013-01-31 00:10:00,
2013-01-30 17:20:00,51.9,26.4,30.21,ESE,122,0.0,1.0,37,0.00,,,0.00,33,Wunderground v.1.15,2013-01-31 00:20:00,
2013-01-30 17:30:00,52.1,26.6,30.21,ESE,122,0.0,0.0,37,0.00,,,0.00,18,Wunderground v.1.15,2013-01-31 00:30:00,
2013-01-30 17:40:00,52.0,27.1,30.21,ESE,122,0.0,2.0,38,0.00,,,0.00,11,Wunderground v.1.15,2013-01-31 00:40:00,
2013-01-30 17:50:00,51.4,26.6,30.20,ESE,122,1.0,1.0,38,0.00,,,0.00,7,Wunderground v.1.15,2013-01-31 00:50:00,
2013-01-30 18:00:00,50.9,27.4,30.20,ESE,122,0.0,0.0,40,0.00,,,0.00,0,Wunderground v.1.15,2013-01-31 01:00:00,
2013-01-30 18:10:00,50.4,27.0,30.20,ESE,122,0.0,0.0,40,0.00,,,0.00,0,Wunderground v.1.15,2013-01-31 01:10:00,
2013-01-30 18:19:00,49.7,26.9,30.20,ESE,122,0.0,0.0,41,0.00,,,0.00,0,Wunderground v.1.15,2013-01-31 01:19:00,
2013-01-30 18:30:00,48.9,27.4,30.21,ESE,121,0.0,0.0,43,0.00,,,0.00,0,Wunderground v.1.15,2013-01-31 01:30:00,
2013-01-30 18:40:00,48.5,27.6,30.21,ESE,121,0.0,0.0,44,0.00,,,0.00,0,Wunderground v.1.15,2013-01-31 01:40:00,
2013-01-30 18:50:00,48.2,28.4,30.22,ESE,122,0.0,1.0,46,0.00,,,0.00,0,Wunderground v.1.15,2013-01-31 01:50:00,
2013-01-30 19:00:00,47.2,28.5,30.22,ESE,117,1.0,3.0,48,0.00,,,0.00,0,Wunderground v.1.15,2013-01-31 02:00:00,
2013-01-30 19:09:00,45.5,27.4,30.22,NNE,30,3.0,3.0,49,0.00,,,0.00,0,Wunderground v.1.15,2013-01-31 02:09:00,
2013-01-30 19:19:00,44.0,28.0,30.22,NNE,29,3.0,3.0,53,0.00,,,0.00,0,Wunderground v.1.15,2013-01-31 02:19:00,
2013-01-30 19:30:00,42.5,27.5,30.22,NNE,30,2.0,5.0,55,0.00,,,0.00,0,Wunderground v.1.15,2013-01-31 02:30:00,
2013-01-30 19:40:00,41.8,27.7,30.22,NNE,32,2.0,2.0,57,0.00,,,0.00,0,Wunderground v.1.15,2013-01-31 02:40:00,
2013-01-30 19:50:00,41.4,27.3,30.22,NNE,32,0.0,0.0,57,0.00,,,0.00,0,Wunderground v.1.15,2013-01-31 02:50:00,
2013-01-30 20:00:00,40.9,27.2,30.23,NNE,32,0.0,0.0,58,0.00,,,0.00,0,Wunderground v.1.15,2013-01-31 03:00:00,
2013-01-30 20:10:00,40.6,27.4,30.23,NNE,32,0.0,0.0,59,0.00,,,0.00,0,Wunderground v.1.15,2013-01-31 03:10:00,
2013-01-30 20:20:00,40.2,27.4,30.23,NNE,32,0.0,0.0,60,0.00,,,0.00,0,Wunderground v.1.15,2013-01-31 03:20:00,
2013-01-30 20:29:00,39.9,27.5,30.23,NNE,32,0.0,0.0,61,0.00,,,0.00,0,Wunderground v.1.15,2013-01-31 03:29:00,
2013-01-30 20:30:00,39.7,27.3,30.23,North,-999,0.0,0.0,61,0.00,,,-99.99,0,WeatherLink 5.9.3,2013-01-31 03:30:00,
2013-01-30 20:40:00,39.6,27.2,30.23,NNE,32,0.0,0.0,61,0.00,,,0.00,0,Wunderground v.1.15,2013-01-31 03:40:00,
2013-01-30 20:50:00,39.1,27.6,30.23,NNE,32,0.0,0.0,63,0.00,,,0.00,0,Wunderground v.1.15,2013-01-31 03:50:00,
2013-01-30 21:00:00,38.7,27.6,30.23,NNE,32,0.0,0.0,64,0.00,,,0.00,0,Wunderground v.1.15,2013-01-31 04:00:00,
2013-01-30 21:10:00,38.0,27.6,30.23,NNE,32,0.0,0.0,66,0.00,,,0.00,0,Wunderground v.1.15,2013-01-31 04:10:00,
2013-01-30 21:20:00,37.5,27.5,30.23,NNE,32,0.0,0.0,67,0.00,,,0.00,0,Wunderground v.1.15,2013-01-31 04:20:00,
2013-01-30 21:30:00,37.0,27.4,30.24,NNE,32,0.0,0.0,68,0.00,,,0.00,0,Wunderground v.1.15,2013-01-31 04:30:00,
2013-01-30 21:40:00,36.6,27.4,30.24,NNE,32,0.0,0.0,69,0.00,,,0.00,0,Wunderground v.1.15,2013-01-31 04:40:00,
2013-01-30 21:50:00,36.2,27.4,30.24,NNE,32,0.0,0.0,70,0.00,,,0.00,0,Wunderground v.1.15,2013-01-31 04:50:00,
2013-01-30 22:00:00,35.9,27.4,30.24,NNE,32,0.0,0.0,71,0.00,,,0.00,0,Wunderground v.1.15,2013-01-31 05:00:00,
2013-01-30 22:10:00,35.6,27.5,30.24,NNE,32,0.0,0.0,72,0.00,,,0.00,0,Wunderground v.1.15,2013-01-31 05:10:00,
2013-01-30 22:20:00,35.2,27.1,30.24,NNE,32,0.0,0.0,72,0.00,,,0.00,0,Wunderground v.1.15,2013-01-31 05:20:00,
2013-01-30 22:30:00,34.8,26.7,30.24,NNE,32,1.0,3.0,72,0.00,,,0.00,0,Wunderground v.1.15,2013-01-31 05:30:00,
2013-01-30 22:40:00,34.4,26.6,30.25,NNE,32,1.0,1.0,73,0.00,,,0.00,0,Wunderground v.1.15,2013-01-31 05:40:00,
2013-01-30 22:50:00,34.4,26.6,30.25,NNE,32,0.0,0.0,73,0.00,,,0.00,0,Wunderground v.1.15,2013-01-31 05:50:00,
2013-01-30 23:00:00,33.9,26.2,30.25,NNE,32,0.0,0.0,73,0.00,,,0.00,0,Wunderground v.1.15,2013-01-31 06:00:00,
2013-01-30 23:10:00,33.5,26.1,30.25,NNE,32,0.0,3.0,74,0.00,,,0.00,0,Wunderground v.1.15,2013-01-31 06:10:00,
2013-01-30 23:20:00,33.4,26.3,30.25,NNE,32,1.0,2.0,75,0.00,,,0.00,0,Wunderground v.1.15,2013-01-31 06:20:00,
2013-01-30 23:30:00,33.5,26.4,30.25,NNE,32,2.0,2.0,75,0.00,,,0.00,0,Wunderground v.1.15,2013-01-31 06:30:00,
2013-01-30 23:40:00,33.5,26.4,30.25,NNE,32,0.0,0.0,75,0.00,,,0.00,0,Wunderground v.1.15,2013-01-31 06:40:00,
2013-01-30 23:50:00,33.1,26.0,30.25,NNE,32,1.0,2.0,75,0.00,,,0.00,0,Wunderground v.1.15,2013-01-31 06:50:00,